sensor_id;sensor_type;location;lat;lon;timestamp;pressure;altitude;pressure_sealevel;temperature;humidity
75221;BME280;63802;53.232;6.570;2022-12-07T00:03:31;101656.34;;;2.84;96.80
75221;BME280;63802;53.232;6.570;2022-12-07T00:05:58;101672.81;;;2.83;96.81
75221;BME280;63802;53.232;6.570;2022-12-07T00:08:23;101666.91;;;2.81;96.83
75221;BME280;63802;53.232;6.570;2022-12-07T00:10:49;101661.66;;;2.70;96.95
75221;BME280;63802;53.232;6.570;2022-12-07T00:13:14;101675.28;;;2.79;97.10
75221;BME280;63802;53.232;6.570;2022-12-07T00:15:43;101667.50;;;2.78;96.95
75221;BME280;63802;53.232;6.570;2022-12-07T00:18:08;101635.97;;;2.54;96.79
75221;BME280;63802;53.232;6.570;2022-12-07T00:20:34;101659.66;;;2.76;96.97
75221;BME280;63802;53.232;6.570;2022-12-07T00:22:59;101666.75;;;2.91;96.48
75221;BME280;63802;53.232;6.570;2022-12-07T00:25:25;101664.44;;;3.03;96.83
75221;BME280;63802;53.232;6.570;2022-12-07T00:27:52;101666.06;;;3.04;96.61
75221;BME280;63802;53.232;6.570;2022-12-07T00:30:21;101660.72;;;2.99;96.43
75221;BME280;63802;53.232;6.570;2022-12-07T00:32:46;101656.28;;;3.08;96.38
75221;BME280;63802;53.232;6.570;2022-12-07T00:35:12;101634.41;;;2.91;96.18
75221;BME280;63802;53.232;6.570;2022-12-07T00:37:38;101647.63;;;3.11;95.91
75221;BME280;63802;53.232;6.570;2022-12-07T00:40:04;101655.13;;;3.14;96.09
75221;BME280;63802;53.232;6.570;2022-12-07T00:42:29;101647.13;;;3.09;96.06
75221;BME280;63802;53.232;6.570;2022-12-07T00:44:55;101658.31;;;3.16;96.32
75221;BME280;63802;53.232;6.570;2022-12-07T00:47:20;101628.50;;;3.07;96.12
75221;BME280;63802;53.232;6.570;2022-12-07T00:49:46;101652.06;;;3.20;96.00
75221;BME280;63802;53.232;6.570;2022-12-07T00:52:11;101643.31;;;3.10;95.76
75221;BME280;63802;53.232;6.570;2022-12-07T00:54:37;101612.56;;;2.92;95.63
75221;BME280;63802;53.232;6.570;2022-12-07T00:57:02;101598.44;;;2.82;96.00
75221;BME280;63802;53.232;6.570;2022-12-07T00:59:28;101647.13;;;3.09;96.10
75221;BME280;63802;53.232;6.570;2022-12-07T01:01:54;101612.06;;;2.90;95.85
75221;BME280;63802;53.232;6.570;2022-12-07T01:04:19;101642.28;;;3.06;95.53
75221;BME280;63802;53.232;6.570;2022-12-07T01:06:45;101657.44;;;3.20;95.74
75221;BME280;63802;53.232;6.570;2022-12-07T01:09:10;101649.06;;;3.22;95.61
75221;BME280;63802;53.232;6.570;2022-12-07T01:11:36;101655.19;;;3.27;95.46
75221;BME280;63802;53.232;6.570;2022-12-07T01:14:01;101641.56;;;3.19;95.05
75221;BME280;63802;53.232;6.570;2022-12-07T01:16:30;101656.06;;;3.23;95.06
75221;BME280;63802;53.232;6.570;2022-12-07T01:18:57;101648.94;;;3.13;94.97
75221;BME280;63802;53.232;6.570;2022-12-07T01:21:25;101632.97;;;2.98;94.86
75221;BME280;63802;53.232;6.570;2022-12-07T01:23:51;101646.69;;;3.02;94.94
75221;BME280;63802;53.232;6.570;2022-12-07T01:26:22;101631.06;;;2.99;94.80
75221;BME280;63802;53.232;6.570;2022-12-07T01:28:49;101638.50;;;3.07;94.55
75221;BME280;63802;53.232;6.570;2022-12-07T01:31:17;101637.91;;;3.10;94.80
75221;BME280;63802;53.232;6.570;2022-12-07T01:33:45;101646.53;;;3.12;94.98
75221;BME280;63802;53.232;6.570;2022-12-07T01:36:18;101666.84;;;3.23;94.86
75221;BME280;63802;53.232;6.570;2022-12-07T01:38:45;101669.75;;;3.26;94.61
75221;BME280;63802;53.232;6.570;2022-12-07T01:41:11;101673.41;;;3.35;94.58
75221;BME280;63802;53.232;6.570;2022-12-07T01:43:37;101657.00;;;3.32;94.40
75221;BME280;63802;53.232;6.570;2022-12-07T01:46:06;101662.38;;;3.32;94.72
75221;BME280;63802;53.232;6.570;2022-12-07T01:48:35;101627.72;;;3.07;94.71
75221;BME280;63802;53.232;6.570;2022-12-07T01:51:09;101664.16;;;3.23;94.83
75221;BME280;63802;53.232;6.570;2022-12-07T01:53:38;101653.13;;;3.19;94.96
75221;BME280;63802;53.232;6.570;2022-12-07T01:56:10;101649.31;;;3.07;94.65
75221;BME280;63802;53.232;6.570;2022-12-07T01:58:36;101648.25;;;3.03;94.92
75221;BME280;63802;53.232;6.570;2022-12-07T02:01:02;101625.13;;;2.83;94.96
75221;BME280;63802;53.232;6.570;2022-12-07T02:03:39;101645.00;;;2.87;95.16
75221;BME280;63802;53.232;6.570;2022-12-07T02:06:06;101646.50;;;2.75;95.02
75221;BME280;63802;53.232;6.570;2022-12-07T02:08:33;101653.63;;;2.65;95.15
75221;BME280;63802;53.232;6.570;2022-12-07T02:11:00;101645.56;;;2.65;94.81
75221;BME280;63802;53.232;6.570;2022-12-07T02:13:28;101641.25;;;2.64;95.09
75221;BME280;63802;53.232;6.570;2022-12-07T02:16:17;101644.53;;;2.61;95.35
75221;BME280;63802;53.232;6.570;2022-12-07T02:19:39;101645.50;;;2.70;95.50
75221;BME280;63802;53.232;6.570;2022-12-07T02:22:01;101637.03;;;2.58;95.18
75221;BME280;63802;53.232;6.570;2022-12-07T02:27:46;101645.53;;;2.47;95.30
75221;BME280;63802;53.232;6.570;2022-12-07T02:30:17;101640.13;;;2.47;95.63
75221;BME280;63802;53.232;6.570;2022-12-07T02:33:00;101646.69;;;2.59;95.52
75221;BME280;63802;53.232;6.570;2022-12-07T02:35:42;101637.53;;;2.60;95.54
75221;BME280;63802;53.232;6.570;2022-12-07T02:38:16;101640.72;;;2.62;95.91
75221;BME280;63802;53.232;6.570;2022-12-07T02:41:12;101644.16;;;2.68;95.46
75221;BME280;63802;53.232;6.570;2022-12-07T02:43:42;101628.28;;;2.66;95.67
75221;BME280;63802;53.232;6.570;2022-12-07T02:46:14;101625.56;;;2.66;95.78
75221;BME280;63802;53.232;6.570;2022-12-07T02:51:46;101631.78;;;2.86;95.93
75221;BME280;63802;53.232;6.570;2022-12-07T02:54:16;101628.88;;;3.01;96.10
75221;BME280;63802;53.232;6.570;2022-12-07T03:10:54;101598.41;;;2.44;95.93
75221;BME280;63802;53.232;6.570;2022-12-07T03:16:39;101614.69;;;2.34;96.28
75221;BME280;63802;53.232;6.570;2022-12-07T03:19:18;101617.53;;;2.43;96.10
75221;BME280;63802;53.232;6.570;2022-12-07T03:21:55;101628.94;;;2.58;96.14
75221;BME280;63802;53.232;6.570;2022-12-07T03:24:25;101627.50;;;2.66;96.17
75221;BME280;63802;53.232;6.570;2022-12-07T03:26:55;101628.56;;;2.65;96.04
75221;BME280;63802;53.232;6.570;2022-12-07T03:29:26;101603.53;;;2.64;96.02
75221;BME280;63802;53.232;6.570;2022-12-07T03:31:55;101609.41;;;2.66;96.30
75221;BME280;63802;53.232;6.570;2022-12-07T03:34:34;101627.19;;;2.67;96.27
75221;BME280;63802;53.232;6.570;2022-12-07T03:37:05;101620.28;;;2.61;96.09
75221;BME280;63802;53.232;6.570;2022-12-07T03:39:46;101621.66;;;2.59;96.20
75221;BME280;63802;53.232;6.570;2022-12-07T03:42:15;101621.38;;;2.60;96.56
75221;BME280;63802;53.232;6.570;2022-12-07T03:44:41;101613.28;;;2.60;96.57
75221;BME280;63802;53.232;6.570;2022-12-07T03:47:28;101612.03;;;2.71;96.19
75221;BME280;63802;53.232;6.570;2022-12-07T03:50:03;101604.75;;;2.72;96.09
75221;BME280;63802;53.232;6.570;2022-12-07T03:52:39;101607.16;;;2.73;96.74
75221;BME280;63802;53.232;6.570;2022-12-07T03:55:30;101597.13;;;2.60;96.29
75221;BME280;63802;53.232;6.570;2022-12-07T03:58:02;101558.78;;;2.26;96.42
75221;BME280;63802;53.232;6.570;2022-12-07T04:00:30;101598.06;;;2.51;96.21
75221;BME280;63802;53.232;6.570;2022-12-07T04:02:55;101610.78;;;2.45;96.40
75221;BME280;63802;53.232;6.570;2022-12-07T04:05:23;101606.00;;;2.42;96.38
75221;BME280;63802;53.232;6.570;2022-12-07T04:07:49;101593.72;;;2.31;96.52
75221;BME280;63802;53.232;6.570;2022-12-07T04:10:14;101604.28;;;2.28;96.55
75221;BME280;63802;53.232;6.570;2022-12-07T04:12:40;101615.16;;;2.18;96.76
75221;BME280;63802;53.232;6.570;2022-12-07T04:15:06;101607.03;;;1.99;96.35
75221;BME280;63802;53.232;6.570;2022-12-07T04:17:31;101613.78;;;1.96;96.47
75221;BME280;63802;53.232;6.570;2022-12-07T04:19:57;101603.88;;;1.92;96.32
75221;BME280;63802;53.232;6.570;2022-12-07T04:22:22;101613.53;;;1.93;96.35
75221;BME280;63802;53.232;6.570;2022-12-07T04:24:48;101596.03;;;1.95;96.23
75221;BME280;63802;53.232;6.570;2022-12-07T04:27:13;101576.44;;;1.90;96.31
75221;BME280;63802;53.232;6.570;2022-12-07T04:29:39;101592.47;;;2.00;96.69
75221;BME280;63802;53.232;6.570;2022-12-07T04:32:05;101571.50;;;1.97;96.62
75221;BME280;63802;53.232;6.570;2022-12-07T04:34:30;101603.94;;;2.11;96.72
75221;BME280;63802;53.232;6.570;2022-12-07T04:36:55;101613.69;;;2.30;96.66
75221;BME280;63802;53.232;6.570;2022-12-07T04:39:25;101620.84;;;2.58;96.73
75221;BME280;63802;53.232;6.570;2022-12-07T04:41:52;101612.72;;;2.63;96.52
75221;BME280;63802;53.232;6.570;2022-12-07T04:44:19;101573.44;;;2.39;96.41
75221;BME280;63802;53.232;6.570;2022-12-07T04:46:45;101608.75;;;2.56;96.39
75221;BME280;63802;53.232;6.570;2022-12-07T04:49:11;101575.97;;;2.30;96.44
75221;BME280;63802;53.232;6.570;2022-12-07T04:51:37;101601.75;;;2.36;96.40
75221;BME280;63802;53.232;6.570;2022-12-07T04:54:03;101589.50;;;2.25;96.54
75221;BME280;63802;53.232;6.570;2022-12-07T04:56:29;101595.00;;;2.15;96.34
75221;BME280;63802;53.232;6.570;2022-12-07T04:58:55;101567.28;;;1.91;96.67
75221;BME280;63802;53.232;6.570;2022-12-07T05:01:21;101585.38;;;1.85;96.06
75221;BME280;63802;53.232;6.570;2022-12-07T05:03:47;101597.03;;;1.76;96.56
75221;BME280;63802;53.232;6.570;2022-12-07T05:06:13;101587.50;;;1.60;96.40
75221;BME280;63802;53.232;6.570;2022-12-07T05:08:39;101579.56;;;1.45;96.28
75221;BME280;63802;53.232;6.570;2022-12-07T05:11:06;101572.19;;;1.31;96.30
75221;BME280;63802;53.232;6.570;2022-12-07T05:13:32;101586.72;;;1.25;96.39
75221;BME280;63802;53.232;6.570;2022-12-07T05:15:58;101594.59;;;1.17;96.42
75221;BME280;63802;53.232;6.570;2022-12-07T05:18:24;101594.94;;;1.10;96.44
75221;BME280;63802;53.232;6.570;2022-12-07T05:20:50;101586.94;;;1.00;96.49
75221;BME280;63802;53.232;6.570;2022-12-07T05:23:17;101589.13;;;0.98;96.25
75221;BME280;63802;53.232;6.570;2022-12-07T05:25:42;101590.72;;;0.94;96.31
75221;BME280;63802;53.232;6.570;2022-12-07T05:28:08;101591.69;;;1.08;96.48
75221;BME280;63802;53.232;6.570;2022-12-07T05:30:33;101580.44;;;1.06;96.47
75221;BME280;63802;53.232;6.570;2022-12-07T05:32:59;101583.56;;;1.18;96.31
75221;BME280;63802;53.232;6.570;2022-12-07T05:35:24;101585.22;;;1.48;96.69
75221;BME280;63802;53.232;6.570;2022-12-07T05:37:49;101581.72;;;1.48;96.68
75221;BME280;63802;53.232;6.570;2022-12-07T05:40:15;101587.50;;;1.60;96.83
75221;BME280;63802;53.232;6.570;2022-12-07T05:42:42;101562.47;;;1.35;97.02
75221;BME280;63802;53.232;6.570;2022-12-07T05:45:08;101561.84;;;1.44;96.64
75221;BME280;63802;53.232;6.570;2022-12-07T05:47:34;101578.41;;;1.56;96.92
75221;BME280;63802;53.232;6.570;2022-12-07T05:50:00;101582.78;;;1.47;96.55
75221;BME280;63802;53.232;6.570;2022-12-07T05:52:26;101584.91;;;1.50;96.79
75221;BME280;63802;53.232;6.570;2022-12-07T05:54:51;101592.97;;;1.50;96.86
75221;BME280;63802;53.232;6.570;2022-12-07T05:57:17;101573.66;;;1.48;96.69
75221;BME280;63802;53.232;6.570;2022-12-07T05:59:43;101583.50;;;1.57;96.83
75221;BME280;63802;53.232;6.570;2022-12-07T06:02:11;101578.13;;;1.57;96.84
75221;BME280;63802;53.232;6.570;2022-12-07T06:04:39;101581.88;;;1.56;96.92
75221;BME280;63802;53.232;6.570;2022-12-07T06:07:06;101590.81;;;1.52;96.76
75221;BME280;63802;53.232;6.570;2022-12-07T06:09:32;101601.91;;;1.74;97.15
75221;BME280;63802;53.232;6.570;2022-12-07T06:11:59;101604.50;;;1.84;96.85
75221;BME280;63802;53.232;6.570;2022-12-07T06:14:43;101588.19;;;1.99;96.92
75221;BME280;63802;53.232;6.570;2022-12-07T06:17:09;101573.00;;;2.08;96.67
75221;BME280;63802;53.232;6.570;2022-12-07T06:19:34;101567.06;;;2.11;97.00
75221;BME280;63802;53.232;6.570;2022-12-07T06:22:00;101577.81;;;2.11;96.67
75221;BME280;63802;53.232;6.570;2022-12-07T06:24:26;101533.50;;;1.80;96.69
75221;BME280;63802;53.232;6.570;2022-12-07T06:26:52;101580.69;;;1.96;96.48
75221;BME280;63802;53.232;6.570;2022-12-07T06:29:18;101568.09;;;1.91;96.56
75221;BME280;63802;53.232;6.570;2022-12-07T06:31:44;101564.19;;;1.79;96.58
75221;BME280;63802;53.232;6.570;2022-12-07T06:34:12;101565.31;;;1.73;96.78
75221;BME280;63802;53.232;6.570;2022-12-07T06:36:39;101571.03;;;1.66;96.70
75221;BME280;63802;53.232;6.570;2022-12-07T06:39:06;101562.88;;;1.48;96.67
75221;BME280;63802;53.232;6.570;2022-12-07T06:41:35;101571.56;;;1.40;96.67
75221;BME280;63802;53.232;6.570;2022-12-07T06:44:02;101541.97;;;1.11;96.90
75221;BME280;63802;53.232;6.570;2022-12-07T06:46:27;101566.19;;;1.40;96.88
75221;BME280;63802;53.232;6.570;2022-12-07T06:48:53;101567.06;;;1.30;96.74
75221;BME280;63802;53.232;6.570;2022-12-07T06:51:18;101558.28;;;1.24;96.77
75221;BME280;63802;53.232;6.570;2022-12-07T06:53:44;101569.88;;;1.20;96.53
75221;BME280;63802;53.232;6.570;2022-12-07T06:56:09;101576.06;;;1.15;96.61
75221;BME280;63802;53.232;6.570;2022-12-07T06:58:35;101572.28;;;1.16;96.70
75221;BME280;63802;53.232;6.570;2022-12-07T07:01:01;101583.53;;;1.23;97.02
75221;BME280;63802;53.232;6.570;2022-12-07T07:03:28;101587.69;;;1.40;96.99
75221;BME280;63802;53.232;6.570;2022-12-07T07:05:55;101615.44;;;1.64;97.04
75221;BME280;63802;53.232;6.570;2022-12-07T07:08:20;101630.19;;;1.95;96.66
75221;BME280;63802;53.232;6.570;2022-12-07T07:10:47;101637.97;;;2.01;96.69
75221;BME280;63802;53.232;6.570;2022-12-07T07:13:12;101619.34;;;2.05;96.58
75221;BME280;63802;53.232;6.570;2022-12-07T07:15:38;101624.72;;;2.05;96.85
75221;BME280;63802;53.232;6.570;2022-12-07T07:18:04;101624.09;;;2.13;97.01
75221;BME280;63802;53.232;6.570;2022-12-07T07:20:31;101611.50;;;2.32;96.81
75221;BME280;63802;53.232;6.570;2022-12-07T07:22:57;101601.22;;;2.34;96.83
75221;BME280;63802;53.232;6.570;2022-12-07T07:25:23;101592.59;;;2.37;97.02
75221;BME280;63802;53.232;6.570;2022-12-07T07:27:48;101584.66;;;2.46;96.66
75221;BME280;63802;53.232;6.570;2022-12-07T07:30:14;101579.84;;;2.43;96.47
75221;BME280;63802;53.232;6.570;2022-12-07T07:32:40;101563.09;;;2.27;96.35
75221;BME280;63802;53.232;6.570;2022-12-07T07:35:10;101581.81;;;2.37;96.29
75221;BME280;63802;53.232;6.570;2022-12-07T07:37:35;101580.19;;;2.36;96.39
75221;BME280;63802;53.232;6.570;2022-12-07T07:40:01;101600.13;;;2.35;96.44
75221;BME280;63802;53.232;6.570;2022-12-07T07:42:26;101584.16;;;2.20;95.97
75221;BME280;63802;53.232;6.570;2022-12-07T07:44:53;101589.03;;;2.18;96.32
75221;BME280;63802;53.232;6.570;2022-12-07T07:47:20;101579.31;;;1.98;96.44
75221;BME280;63802;53.232;6.570;2022-12-07T07:49:45;101596.19;;;2.04;96.36
75221;BME280;63802;53.232;6.570;2022-12-07T07:52:11;101594.41;;;1.94;96.35
75221;BME280;63802;53.232;6.570;2022-12-07T07:54:37;101580.22;;;1.89;96.25
75221;BME280;63802;53.232;6.570;2022-12-07T07:57:04;101588.69;;;2.01;96.44
75221;BME280;63802;53.232;6.570;2022-12-07T07:59:30;101583.63;;;1.94;96.46
75221;BME280;63802;53.232;6.570;2022-12-07T08:01:55;101550.22;;;1.77;96.41
75221;BME280;63802;53.232;6.570;2022-12-07T08:04:22;101595.69;;;2.02;96.30
75221;BME280;63802;53.232;6.570;2022-12-07T08:06:48;101577.84;;;1.82;96.07
75221;BME280;63802;53.232;6.570;2022-12-07T08:09:14;101573.91;;;1.75;96.38
75221;BME280;63802;53.232;6.570;2022-12-07T08:11:40;101584.69;;;1.75;96.26
75221;BME280;63802;53.232;6.570;2022-12-07T08:14:06;101586.84;;;1.73;96.20
75221;BME280;63802;53.232;6.570;2022-12-07T08:16:32;101595.97;;;1.77;96.31
75221;BME280;63802;53.232;6.570;2022-12-07T08:18:58;101597.03;;;1.76;96.34
75221;BME280;63802;53.232;6.570;2022-12-07T08:21:25;101589.53;;;1.73;96.61
75221;BME280;63802;53.232;6.570;2022-12-07T08:23:51;101600.22;;;1.78;96.13
75221;BME280;63802;53.232;6.570;2022-12-07T08:26:17;101572.41;;;1.64;96.44
75221;BME280;63802;53.232;6.570;2022-12-07T08:28:43;101597.50;;;1.83;96.67
75221;BME280;63802;53.232;6.570;2022-12-07T08:31:12;101609.41;;;1.77;96.61
75221;BME280;63802;53.232;6.570;2022-12-07T08:33:39;101604.59;;;1.74;96.21
75221;BME280;63802;53.232;6.570;2022-12-07T08:36:17;101615.81;;;1.81;96.74
75221;BME280;63802;53.232;6.570;2022-12-07T08:38:43;101604.72;;;1.87;96.55
75221;BME280;63802;53.232;6.570;2022-12-07T08:41:09;101618.72;;;2.13;96.58
75221;BME280;63802;53.232;6.570;2022-12-07T08:43:36;101610.13;;;2.11;96.74
75221;BME280;63802;53.232;6.570;2022-12-07T08:48:43;101618.13;;;2.16;96.62
75221;BME280;63802;53.232;6.570;2022-12-07T08:51:10;101608.00;;;2.08;96.54
75221;BME280;63802;53.232;6.570;2022-12-07T08:53:37;101600.28;;;2.01;96.21
75221;BME280;63802;53.232;6.570;2022-12-07T08:56:04;101602.50;;;2.18;96.78
75221;BME280;63802;53.232;6.570;2022-12-07T08:58:30;101602.97;;;2.25;96.36
75221;BME280;63802;53.232;6.570;2022-12-07T09:00:55;101611.06;;;2.44;96.95
75221;BME280;63802;53.232;6.570;2022-12-07T09:03:21;101601.50;;;2.56;96.73
75221;BME280;63802;53.232;6.570;2022-12-07T09:05:47;101583.72;;;2.55;96.70
75221;BME280;63802;53.232;6.570;2022-12-07T09:08:14;101586.53;;;2.64;96.44
75221;BME280;63802;53.232;6.570;2022-12-07T09:10:40;101571.25;;;2.59;96.50
75221;BME280;63802;53.232;6.570;2022-12-07T09:13:06;101591.00;;;2.73;96.40
75221;BME280;63802;53.232;6.570;2022-12-07T09:15:33;101583.94;;;2.78;96.42
75221;BME280;63802;53.232;6.570;2022-12-07T09:17:58;101588.53;;;2.96;96.62
75221;BME280;63802;53.232;6.570;2022-12-07T09:20:24;101592.00;;;3.15;96.53
75221;BME280;63802;53.232;6.570;2022-12-07T09:22:50;101586.44;;;3.25;96.37
75221;BME280;63802;53.232;6.570;2022-12-07T09:25:17;101590.28;;;3.37;96.26
75221;BME280;63802;53.232;6.570;2022-12-07T09:27:42;101587.53;;;3.56;96.30
75221;BME280;63802;53.232;6.570;2022-12-07T09:30:08;101590.16;;;3.61;96.55
75221;BME280;63802;53.232;6.570;2022-12-07T09:32:34;101590.16;;;3.61;96.34
75221;BME280;63802;53.232;6.570;2022-12-07T09:35:00;101605.75;;;3.64;96.17
75221;BME280;63802;53.232;6.570;2022-12-07T09:37:25;101601.94;;;3.65;95.71
75221;BME280;63802;53.232;6.570;2022-12-07T09:39:51;101594.03;;;3.55;95.93
75221;BME280;63802;53.232;6.570;2022-12-07T09:42:26;101624.34;;;3.66;95.64
75221;BME280;63802;53.232;6.570;2022-12-07T09:44:53;101611.06;;;3.69;95.33
75221;BME280;63802;53.232;6.570;2022-12-07T09:47:21;101623.09;;;3.90;95.09
75221;BME280;63802;53.232;6.570;2022-12-07T09:49:47;101617.59;;;3.95;94.78
75221;BME280;63802;53.232;6.570;2022-12-07T09:52:20;101620.22;;;4.00;94.66
75221;BME280;63802;53.232;6.570;2022-12-07T09:54:51;101619.00;;;4.06;94.06
75221;BME280;63802;53.232;6.570;2022-12-07T09:57:18;101612.13;;;4.00;94.50
75221;BME280;63802;53.232;6.570;2022-12-07T09:59:45;101604.59;;;3.97;93.98
75221;BME280;63802;53.232;6.570;2022-12-07T10:02:46;101604.19;;;3.90;93.72
75221;BME280;63802;53.232;6.570;2022-12-07T10:05:15;101586.38;;;3.89;93.50
75221;BME280;63802;53.232;6.570;2022-12-07T10:07:41;101575.09;;;4.01;93.13
75221;BME280;63802;53.232;6.570;2022-12-07T10:10:14;101586.09;;;4.18;93.27
75221;BME280;63802;53.232;6.570;2022-12-07T10:12:59;101582.22;;;4.24;93.24
75221;BME280;63802;53.232;6.570;2022-12-07T10:18:39;101574.63;;;4.13;92.54
75221;BME280;63802;53.232;6.570;2022-12-07T10:21:18;101571.59;;;4.14;92.91
75221;BME280;63802;53.232;6.570;2022-12-07T10:24:03;101594.22;;;4.32;92.79
75221;BME280;63802;53.232;6.570;2022-12-07T10:26:34;101584.00;;;4.29;92.51
75221;BME280;63802;53.232;6.570;2022-12-07T10:31:39;101578.53;;;4.56;92.77
75221;BME280;63802;53.232;6.570;2022-12-07T10:34:26;101587.72;;;4.82;92.66
75221;BME280;63802;53.232;6.570;2022-12-07T10:36:53;101582.03;;;5.06;92.63
75221;BME280;63802;53.232;6.570;2022-12-07T10:39:21;101587.19;;;5.16;92.50
75221;BME280;63802;53.232;6.570;2022-12-07T10:41:59;101570.06;;;5.07;92.14
75221;BME280;63802;53.232;6.570;2022-12-07T10:44:28;101566.19;;;4.99;91.84
75221;BME280;63802;53.232;6.570;2022-12-07T10:49:41;101572.84;;;4.93;91.36
75221;BME280;63802;53.232;6.570;2022-12-07T10:57:33;101582.44;;;4.99;91.81
75221;BME280;63802;53.232;6.570;2022-12-07T11:00:21;101563.13;;;4.70;90.63
75221;BME280;63802;53.232;6.570;2022-12-07T11:03:19;101563.56;;;4.50;90.22
75221;BME280;63802;53.232;6.570;2022-12-07T11:05:53;101566.84;;;4.47;90.15
75221;BME280;63802;53.232;6.570;2022-12-07T11:11:19;101558.56;;;4.30;90.52
75221;BME280;63802;53.232;6.570;2022-12-07T11:21:57;101532.88;;;4.19;90.59
75221;BME280;63802;53.232;6.570;2022-12-07T11:32:54;101508.25;;;4.34;91.62
75221;BME280;63802;53.232;6.570;2022-12-07T11:38:17;101508.13;;;4.74;91.00
75221;BME280;63802;53.232;6.570;2022-12-07T11:40:48;101498.84;;;4.89;90.95
75221;BME280;63802;53.232;6.570;2022-12-07T11:43:34;101504.25;;;4.89;90.85
75221;BME280;63802;53.232;6.570;2022-12-07T11:46:08;101506.97;;;4.89;90.56
75221;BME280;63802;53.232;6.570;2022-12-07T11:51:13;101480.34;;;4.60;90.05
75221;BME280;63802;53.232;6.570;2022-12-07T11:54:03;101513.22;;;4.76;90.04
75221;BME280;63802;53.232;6.570;2022-12-07T11:56:34;101497.34;;;4.61;89.72
75221;BME280;63802;53.232;6.570;2022-12-07T12:06:39;101500.00;;;4.52;89.50
75221;BME280;63802;53.232;6.570;2022-12-07T12:17:37;101487.25;;;4.31;89.54
75221;BME280;63802;53.232;6.570;2022-12-07T12:20:23;101477.53;;;4.30;89.55
75221;BME280;63802;53.232;6.570;2022-12-07T12:25:28;101475.34;;;4.32;89.53
75221;BME280;63802;53.232;6.570;2022-12-07T12:27:58;101476.31;;;4.36;90.00
75221;BME280;63802;53.232;6.570;2022-12-07T12:30:31;101478.72;;;4.37;90.01
75221;BME280;63802;53.232;6.570;2022-12-07T12:33:27;101470.44;;;4.34;90.14
75221;BME280;63802;53.232;6.570;2022-12-07T12:36:17;101464.41;;;4.37;89.90
75221;BME280;63802;53.232;6.570;2022-12-07T12:39:07;101465.91;;;4.43;90.30
75221;BME280;63802;53.232;6.570;2022-12-07T12:54:29;101446.00;;;4.61;88.86
75221;BME280;63802;53.232;6.570;2022-12-07T12:59:29;101418.34;;;4.20;88.90
75221;BME280;63802;53.232;6.570;2022-12-07T13:04:54;101434.19;;;4.13;89.04
75221;BME280;63802;53.232;6.570;2022-12-07T13:21:39;101434.28;;;4.07;89.35
75221;BME280;63802;53.232;6.570;2022-12-07T13:26:23;101431.22;;;4.00;89.26
75221;BME280;63802;53.232;6.570;2022-12-07T13:34:02;101442.72;;;3.79;89.33
75221;BME280;63802;53.232;6.570;2022-12-07T13:36:33;101423.94;;;3.60;89.74
75221;BME280;63802;53.232;6.570;2022-12-07T13:39:20;101456.44;;;3.69;89.74
75221;BME280;63802;53.232;6.570;2022-12-07T13:41:52;101439.25;;;3.51;90.36
75221;BME280;63802;53.232;6.570;2022-12-07T13:44:19;101444.94;;;3.50;90.24
75221;BME280;63802;53.232;6.570;2022-12-07T13:47:04;101419.06;;;3.21;90.27
75221;BME280;63802;53.232;6.570;2022-12-07T13:49:37;101419.34;;;3.20;90.57
75221;BME280;63802;53.232;6.570;2022-12-07T13:52:24;101409.63;;;3.05;90.92
75221;BME280;63802;53.232;6.570;2022-12-07T13:57:30;101418.00;;;2.90;90.92
75221;BME280;63802;53.232;6.570;2022-12-07T13:59:58;101416.78;;;2.83;90.97
75221;BME280;63802;53.232;6.570;2022-12-07T14:02:29;101411.00;;;2.76;90.80
75221;BME280;63802;53.232;6.570;2022-12-07T14:05:23;101408.38;;;2.70;91.38
75221;BME280;63802;53.232;6.570;2022-12-07T14:07:55;101405.25;;;2.63;91.82
75221;BME280;63802;53.232;6.570;2022-12-07T14:10:37;101399.97;;;2.58;91.81
75221;BME280;63802;53.232;6.570;2022-12-07T14:13:32;101406.72;;;2.56;92.15
75221;BME280;63802;53.232;6.570;2022-12-07T14:16:02;101411.91;;;2.52;92.27
75221;BME280;63802;53.232;6.570;2022-12-07T14:18:40;101399.72;;;2.55;92.51
75221;BME280;63802;53.232;6.570;2022-12-07T14:23:36;101410.59;;;2.50;93.08
75221;BME280;63802;53.232;6.570;2022-12-07T14:26:22;101396.13;;;2.46;92.86
75221;BME280;63802;53.232;6.570;2022-12-07T14:28:48;101411.72;;;2.62;93.31
75221;BME280;63802;53.232;6.570;2022-12-07T14:31:17;101413.75;;;2.70;93.36
75221;BME280;63802;53.232;6.570;2022-12-07T14:33:43;101389.59;;;2.65;93.13
75221;BME280;63802;53.232;6.570;2022-12-07T14:36:11;101392.22;;;2.70;93.13
75221;BME280;63802;53.232;6.570;2022-12-07T14:38:38;101404.47;;;2.77;93.43
75221;BME280;63802;53.232;6.570;2022-12-07T14:41:06;101400.53;;;2.88;93.41
75221;BME280;63802;53.232;6.570;2022-12-07T14:43:54;101408.81;;;2.91;93.24
75221;BME280;63802;53.232;6.570;2022-12-07T14:46:22;101412.81;;;2.94;93.58
75221;BME280;63802;53.232;6.570;2022-12-07T14:48:49;101413.81;;;2.98;93.60
75221;BME280;63802;53.232;6.570;2022-12-07T14:51:15;101406.25;;;3.00;93.67
75221;BME280;63802;53.232;6.570;2022-12-07T14:53:48;101412.50;;;2.95;93.32
75221;BME280;63802;53.232;6.570;2022-12-07T14:56:16;101400.00;;;2.86;93.58
75221;BME280;63802;53.232;6.570;2022-12-07T14:58:41;101396.72;;;2.89;93.38
75221;BME280;63802;53.232;6.570;2022-12-07T15:01:06;101389.84;;;2.83;93.67
75221;BME280;63802;53.232;6.570;2022-12-07T15:03:32;101348.69;;;2.63;93.59
75221;BME280;63802;53.232;6.570;2022-12-07T15:06:00;101385.03;;;2.80;93.64
75221;BME280;63802;53.232;6.570;2022-12-07T15:08:26;101364.47;;;2.70;93.80
75221;BME280;63802;53.232;6.570;2022-12-07T15:10:52;101374.16;;;2.71;93.46
75221;BME280;63802;53.232;6.570;2022-12-07T15:13:18;101361.84;;;2.65;93.46
75221;BME280;63802;53.232;6.570;2022-12-07T15:16:02;101376.22;;;2.60;93.63
75221;BME280;63802;53.232;6.570;2022-12-07T15:18:27;101383.88;;;2.53;93.51
75221;BME280;63802;53.232;6.570;2022-12-07T15:20:53;101361.56;;;2.34;93.93
75221;BME280;63802;53.232;6.570;2022-12-07T15:23:20;101392.13;;;2.43;93.35